createdAt,value
2022-10-31T00:01:36.815Z,21.70
2022-10-31T00:04:06.507Z,20.60
2022-10-31T00:06:34.775Z,18.60
2022-10-31T00:09:05.518Z,20.00
2022-10-31T00:11:33.798Z,19.90
2022-10-31T00:14:02.449Z,19.40
2022-10-31T00:16:31.205Z,19.60
2022-10-31T00:19:03.712Z,20.00
2022-10-31T00:21:33.859Z,21.20
2022-10-31T00:24:02.857Z,22.30
2022-10-31T00:26:32.429Z,21.70
2022-10-31T00:29:01.868Z,20.10
2022-10-31T00:31:30.948Z,17.80
2022-10-31T00:33:59.496Z,19.60
2022-10-31T00:36:28.545Z,19.20
2022-10-31T00:38:56.718Z,19.40
2022-10-31T00:41:26.234Z,19.40
2022-10-31T00:43:54.492Z,19.30
2022-10-31T00:46:22.670Z,19.50
2022-10-31T00:48:52.996Z,20.20
2022-10-31T00:51:21.254Z,20.10
2022-10-31T00:53:49.505Z,19.10
2022-10-31T00:56:17.681Z,18.80
2022-10-31T00:58:45.974Z,19.70
2022-10-31T01:01:14.420Z,20.00
2022-10-31T01:03:42.746Z,19.30
2022-10-31T01:06:15.247Z,19.90
2022-10-31T01:08:44.296Z,20.60
2022-10-31T01:11:21.085Z,19.00
2022-10-31T01:13:52.838Z,18.80
2022-10-31T01:16:23.899Z,19.70
2022-10-31T01:18:52.701Z,18.50
2022-10-31T01:21:27.652Z,18.80
2022-10-31T01:23:58.778Z,19.70
2022-10-31T01:26:31.800Z,19.10
2022-10-31T01:29:07.639Z,19.50
2022-10-31T01:31:40.047Z,18.80
2022-10-31T01:34:11.401Z,19.20
2022-10-31T01:36:39.827Z,20.70
2022-10-31T01:39:13.780Z,19.20
2022-10-31T01:41:45.117Z,19.00
2022-10-31T01:44:16.365Z,18.60
2022-10-31T01:46:55.738Z,18.70
2022-10-31T01:49:37.305Z,19.40
2022-10-31T01:52:15.199Z,19.70
2022-10-31T01:54:54.081Z,18.60
2022-10-31T01:57:23.449Z,18.30
2022-10-31T01:59:59.137Z,18.90
2022-10-31T02:02:29.784Z,18.60
2022-10-31T02:05:01.662Z,18.30
2022-10-31T02:07:49.922Z,18.40
2022-10-31T02:10:20.153Z,17.30
2022-10-31T02:12:49.931Z,17.30
2022-10-31T02:15:18.305Z,17.80
2022-10-31T02:17:47.400Z,18.30
2022-10-31T02:20:20.547Z,17.60
2022-10-31T02:23:02.236Z,18.80
2022-10-31T02:26:16.073Z,16.10
2022-10-31T02:29:22.249Z,18.40
2022-10-31T02:32:21.609Z,19.20
2022-10-31T02:35:32.218Z,18.40
2022-10-31T02:38:22.408Z,17.80
2022-10-31T02:41:09.280Z,17.90
2022-10-31T02:44:12.593Z,18.60
2022-10-31T02:46:51.182Z,17.00
2022-10-31T02:49:30.563Z,18.00
2022-10-31T02:51:58.976Z,16.50
2022-10-31T02:54:29.646Z,18.10
2022-10-31T02:57:08.872Z,18.70
2022-10-31T02:59:41.739Z,17.60
2022-10-31T03:02:44.288Z,17.20
2022-10-31T03:05:48.088Z,16.70
2022-10-31T03:08:26.028Z,18.60
2022-10-31T03:11:01.085Z,17.90
2022-10-31T03:16:26.408Z,17.90
2022-10-31T03:19:05.859Z,17.10
2022-10-31T03:21:57.304Z,18.50
2022-10-31T03:24:31.003Z,16.50
2022-10-31T03:27:02.220Z,17.50
2022-10-31T03:29:36.615Z,17.10
2022-10-31T03:32:14.835Z,16.50
2022-10-31T03:34:46.581Z,15.70
2022-10-31T03:37:20.803Z,16.20
2022-10-31T03:39:50.936Z,15.90
2022-10-31T03:42:25.689Z,16.20
2022-10-31T03:45:02.633Z,17.10
2022-10-31T03:47:32.247Z,16.30
2022-10-31T03:50:02.046Z,16.30
2022-10-31T03:52:49.030Z,15.90
2022-10-31T03:55:43.467Z,15.80
2022-10-31T03:58:38.503Z,16.70
2022-10-31T04:01:10.760Z,15.40
2022-10-31T04:03:40.513Z,16.30
2022-10-31T04:06:14.864Z,15.50
2022-10-31T04:08:57.069Z,18.30
2022-10-31T04:11:32.713Z,15.50
2022-10-31T04:14:36.426Z,16.30
2022-10-31T04:17:10.109Z,16.20
2022-10-31T04:19:40.953Z,15.50
2022-10-31T04:22:10.351Z,15.80
2022-10-31T04:24:41.633Z,16.00
2022-10-31T04:27:12.871Z,15.50
2022-10-31T04:29:41.130Z,14.50
2022-10-31T04:32:10.342Z,14.60
2022-10-31T04:34:39.697Z,14.20
2022-10-31T04:37:08.142Z,15.40
2022-10-31T04:39:36.764Z,16.10
2022-10-31T04:42:23.849Z,15.00
2022-10-31T04:44:52.257Z,15.40
2022-10-31T04:47:20.944Z,15.80
2022-10-31T04:49:49.177Z,15.40
2022-10-31T04:52:18.476Z,15.20
2022-10-31T04:54:46.891Z,14.50
2022-10-31T04:57:46.338Z,15.90
2022-10-31T05:00:17.811Z,14.50
2022-10-31T05:02:46.980Z,14.70
2022-10-31T05:05:17.379Z,14.60
2022-10-31T05:07:48.107Z,15.90
2022-10-31T05:10:19.667Z,14.90
2022-10-31T05:12:56.907Z,14.60
2022-10-31T05:15:51.865Z,16.10
2022-10-31T05:18:20.061Z,15.00
2022-10-31T05:21:23.897Z,15.80
2022-10-31T05:24:00.009Z,15.30
2022-10-31T05:26:29.376Z,15.30
2022-10-31T05:28:57.646Z,14.40
2022-10-31T05:31:25.862Z,15.80
2022-10-31T05:33:55.404Z,15.20
2022-10-31T05:36:42.279Z,16.20
2022-10-31T05:39:17.146Z,16.10
2022-10-31T05:41:49.085Z,17.30
2022-10-31T05:44:43.477Z,16.30
2022-10-31T05:47:31.909Z,16.50
2022-10-31T05:50:21.436Z,17.20
2022-10-31T05:53:02.603Z,15.50
2022-10-31T05:55:37.500Z,16.60
2022-10-31T05:58:12.278Z,16.20
2022-10-31T06:00:42.869Z,15.90
2022-10-31T06:03:11.601Z,15.40
2022-10-31T06:05:56.544Z,15.10
2022-10-31T06:08:32.046Z,15.00
2022-10-31T06:11:03.804Z,14.90
2022-10-31T06:13:52.250Z,14.40
2022-10-31T06:16:33.136Z,13.90
2022-10-31T06:19:09.926Z,14.00
2022-10-31T06:21:38.263Z,14.70
2022-10-31T06:24:06.569Z,14.80
2022-10-31T06:26:55.344Z,14.10
2022-10-31T06:29:23.785Z,15.10
2022-10-31T06:32:03.872Z,14.80
2022-10-31T06:34:32.249Z,15.40
2022-10-31T06:37:00.513Z,14.50
2022-10-31T06:39:29.417Z,15.30
2022-10-31T06:41:57.713Z,15.90
2022-10-31T06:44:28.183Z,15.00
2022-10-31T06:46:56.756Z,17.20
2022-10-31T06:49:46.321Z,17.40
2022-10-31T06:52:17.235Z,18.10
2022-10-31T06:54:45.447Z,17.50
2022-10-31T06:57:15.811Z,18.40
2022-10-31T06:59:44.191Z,18.00
2022-10-31T07:02:31.184Z,17.90
2022-10-31T07:04:59.487Z,16.90
2022-10-31T07:07:27.674Z,18.10
2022-10-31T07:09:55.932Z,17.20
2022-10-31T07:12:37.660Z,18.70
2022-10-31T07:15:06.368Z,18.40
2022-10-31T07:17:34.944Z,18.20
2022-10-31T07:20:03.755Z,17.60
2022-10-31T07:22:37.477Z,18.10
2022-10-31T07:25:07.627Z,17.90
2022-10-31T07:27:54.682Z,17.20
2022-10-31T07:30:23.078Z,17.10
2022-10-31T07:32:52.806Z,18.30
2022-10-31T07:35:24.315Z,17.30
2022-10-31T07:37:59.547Z,17.90
2022-10-31T07:40:28.112Z,17.60
2022-10-31T07:42:59.227Z,16.50
2022-10-31T07:45:51.051Z,18.90
2022-10-31T07:48:58.103Z,18.30
2022-10-31T07:51:58.684Z,17.60
2022-10-31T07:54:42.052Z,15.70
2022-10-31T07:57:10.974Z,15.90
2022-10-31T07:59:39.727Z,14.20
2022-10-31T08:02:09.777Z,13.50
2022-10-31T08:05:01.142Z,12.90
2022-10-31T08:08:06.742Z,14.30
2022-10-31T08:10:36.164Z,12.90
2022-10-31T08:13:07.990Z,14.90
2022-10-31T08:15:40.536Z,15.60
2022-10-31T08:18:35.456Z,16.50
2022-10-31T08:21:05.873Z,16.10
2022-10-31T08:23:34.065Z,18.40
2022-10-31T08:26:02.309Z,16.70
2022-10-31T08:28:33.488Z,16.60
2022-10-31T08:31:02.255Z,19.40
2022-10-31T08:33:42.561Z,19.30
2022-10-31T08:36:47.332Z,18.80
2022-10-31T08:39:26.652Z,18.50
2022-10-31T08:41:54.876Z,18.20
2022-10-31T08:44:23.145Z,15.40
2022-10-31T08:46:51.568Z,14.80
2022-10-31T08:49:19.831Z,14.80
2022-10-31T08:51:49.557Z,13.20
2022-10-31T08:54:17.997Z,12.90
2022-10-31T08:56:58.364Z,12.90
2022-10-31T08:59:38.750Z,11.30
2022-10-31T09:02:25.918Z,11.00
2022-10-31T09:04:58.895Z,11.10
2022-10-31T09:07:27.276Z,10.00
2022-10-31T09:09:57.094Z,9.30
2022-10-31T09:12:25.520Z,8.90
2022-10-31T09:15:12.227Z,9.00
2022-10-31T09:17:54.690Z,9.00
2022-10-31T09:20:52.137Z,8.90
2022-10-31T09:23:23.297Z,8.30
2022-10-31T09:25:53.741Z,8.50
2022-10-31T09:28:37.262Z,8.30
2022-10-31T09:31:14.380Z,8.10
2022-10-31T09:34:01.759Z,8.60
2022-10-31T09:36:39.946Z,8.90
2022-10-31T09:39:14.617Z,8.40
2022-10-31T09:42:21.304Z,9.50
2022-10-31T09:45:27.636Z,8.50
2022-10-31T09:48:35.077Z,8.50
2022-10-31T09:51:15.942Z,8.60
2022-10-31T09:54:28.505Z,8.80
2022-10-31T09:57:01.416Z,7.60
2022-10-31T09:59:35.285Z,7.60
2022-10-31T10:02:22.085Z,7.70
2022-10-31T10:05:11.605Z,8.20
2022-10-31T10:07:53.274Z,7.80
2022-10-31T10:10:49.042Z,8.20
2022-10-31T10:14:12.887Z,8.10
2022-10-31T10:16:50.306Z,8.10
2022-10-31T10:19:33.845Z,7.20
2022-10-31T10:22:05.343Z,7.10
2022-10-31T10:24:43.710Z,7.50
2022-10-31T10:27:26.880Z,8.10
2022-10-31T10:30:14.169Z,7.20
2022-10-31T10:33:00.305Z,6.80
2022-10-31T10:35:30.933Z,8.30
2022-10-31T10:38:17.362Z,7.70
2022-10-31T10:40:47.253Z,8.00
2022-10-31T10:43:23.882Z,7.90
2022-10-31T10:46:32.728Z,7.00
2022-10-31T10:49:51.770Z,7.80
2022-10-31T10:52:44.607Z,10.00
2022-10-31T10:55:31.584Z,9.20
2022-10-31T10:58:05.716Z,7.80
2022-10-31T11:00:42.083Z,8.00
2022-10-31T11:03:11.982Z,7.20
2022-10-31T11:05:43.603Z,6.80
2022-10-31T11:08:12.737Z,6.60
2022-10-31T11:10:40.979Z,7.20
2022-10-31T11:13:17.057Z,7.50
2022-10-31T11:15:56.903Z,6.30
2022-10-31T11:18:28.778Z,6.90
2022-10-31T11:21:00.294Z,7.20
2022-10-31T11:23:29.875Z,6.80
2022-10-31T11:26:02.888Z,7.10
2022-10-31T11:28:36.291Z,6.60
2022-10-31T11:31:13.169Z,8.00
2022-10-31T11:33:49.448Z,7.90
2022-10-31T11:36:28.265Z,7.40
2022-10-31T11:38:56.792Z,6.30
2022-10-31T11:41:33.996Z,7.40
2022-10-31T11:44:31.123Z,7.40
2022-10-31T11:47:03.258Z,7.10
2022-10-31T11:49:35.786Z,7.50
2022-10-31T11:52:24.607Z,8.10
2022-10-31T11:55:16.108Z,9.90
2022-10-31T11:57:53.380Z,7.70
2022-10-31T12:00:26.325Z,8.60
2022-10-31T12:03:13.344Z,8.00
2022-10-31T12:05:44.446Z,7.60
2022-10-31T12:08:14.618Z,7.90
2022-10-31T12:11:12.733Z,8.20
2022-10-31T12:14:03.545Z,7.80
2022-10-31T12:16:55.645Z,7.10
2022-10-31T12:19:51.242Z,8.20
2022-10-31T12:22:35.328Z,7.80
2022-10-31T12:25:26.935Z,6.60
2022-10-31T12:28:14.166Z,7.90
2022-10-31T12:30:52.641Z,7.50
2022-10-31T12:33:39.478Z,6.90
2022-10-31T12:36:26.545Z,7.30
2022-10-31T12:39:06.831Z,7.70
2022-10-31T12:41:52.334Z,7.20
2022-10-31T12:44:41.705Z,7.20
2022-10-31T12:47:44.496Z,6.90
2022-10-31T12:50:25.211Z,6.70
2022-10-31T12:52:53.514Z,8.00
2022-10-31T12:55:36.948Z,7.00
2022-10-31T12:58:18.759Z,9.10
2022-10-31T13:00:52.963Z,8.30
2022-10-31T13:05:59.677Z,7.30
2022-10-31T13:08:36.958Z,7.60
2022-10-31T13:11:15.856Z,7.80
2022-10-31T13:13:55.229Z,8.30
2022-10-31T13:16:30.050Z,8.10
2022-10-31T13:19:34.033Z,8.50
2022-10-31T13:22:20.202Z,8.20
2022-10-31T13:24:58.366Z,8.00
2022-10-31T13:27:31.550Z,9.80
2022-10-31T13:30:16.494Z,8.40
2022-10-31T13:33:14.813Z,7.90
2022-10-31T13:36:09.249Z,7.70
2022-10-31T13:38:37.439Z,8.20
2022-10-31T13:41:32.334Z,8.20
2022-10-31T13:44:25.221Z,7.90
2022-10-31T13:46:56.475Z,7.70
2022-10-31T13:49:24.597Z,8.20
2022-10-31T13:51:55.615Z,7.50
2022-10-31T13:54:35.435Z,7.70
2022-10-31T13:57:19.961Z,8.80
2022-10-31T14:00:01.057Z,8.70
2022-10-31T14:02:33.126Z,8.20
2022-10-31T14:05:06.863Z,8.30
2022-10-31T14:07:45.181Z,8.30
2022-10-31T14:10:30.816Z,8.10
2022-10-31T14:13:26.224Z,8.10
2022-10-31T14:15:59.565Z,7.90
2022-10-31T14:18:38.748Z,8.50
2022-10-31T14:21:23.969Z,8.80
2022-10-31T14:23:55.152Z,8.20
2022-10-31T14:26:27.552Z,8.00
2022-10-31T14:28:58.589Z,7.90
2022-10-31T14:31:38.791Z,8.20
2022-10-31T14:34:20.019Z,7.90
2022-10-31T14:36:57.808Z,9.00
2022-10-31T14:40:02.952Z,8.60
2022-10-31T14:42:38.397Z,7.50
2022-10-31T14:45:28.422Z,8.90
2022-10-31T14:48:12.001Z,8.30
2022-10-31T14:50:49.920Z,9.60
2022-10-31T14:53:28.864Z,10.70
2022-10-31T14:56:02.771Z,10.60
2022-10-31T14:58:47.350Z,12.10
2022-10-31T15:01:29.989Z,11.70
2022-10-31T15:04:24.191Z,11.30
2022-10-31T15:07:03.645Z,10.60
2022-10-31T15:09:38.906Z,11.60
2022-10-31T15:12:25.578Z,11.80
2022-10-31T15:14:54.642Z,11.70
2022-10-31T15:17:25.838Z,10.70
2022-10-31T15:19:55.530Z,10.40
2022-10-31T15:22:27.746Z,9.80
2022-10-31T15:24:57.613Z,10.60
2022-10-31T15:27:26.115Z,11.30
2022-10-31T15:29:57.105Z,10.80
2022-10-31T15:32:30.240Z,11.30
2022-10-31T15:34:58.571Z,10.50
2022-10-31T15:37:28.021Z,10.40
2022-10-31T15:39:56.305Z,12.60
2022-10-31T15:42:35.730Z,13.00
2022-10-31T15:45:17.968Z,14.40
2022-10-31T15:47:59.618Z,16.70
2022-10-31T15:50:33.737Z,18.10
2022-10-31T15:53:03.433Z,18.30
2022-10-31T15:55:46.362Z,21.60
2022-10-31T15:58:17.378Z,22.40
2022-10-31T16:00:46.346Z,21.30
2022-10-31T16:03:20.763Z,20.70
2022-10-31T16:05:56.514Z,19.90
2022-10-31T16:08:30.972Z,17.90
2022-10-31T16:11:15.645Z,25.30
2022-10-31T16:14:12.331Z,23.00
2022-10-31T16:16:45.401Z,53.10
2022-10-31T16:19:18.622Z,62.10
2022-10-31T16:21:48.998Z,39.40
2022-10-31T16:24:21.353Z,29.10
2022-10-31T16:26:52.673Z,24.50
2022-10-31T16:29:45.274Z,24.10
2022-10-31T16:32:26.882Z,33.90
2022-10-31T16:35:22.554Z,37.30
2022-10-31T16:37:50.881Z,32.30
2022-10-31T16:40:19.957Z,33.10
2022-10-31T16:42:50.266Z,41.20
2022-10-31T16:45:27.352Z,41.00
2022-10-31T16:48:04.618Z,36.20
2022-10-31T16:50:33.902Z,34.00
2022-10-31T16:53:13.888Z,28.30
2022-10-31T16:55:59.399Z,24.50
2022-10-31T16:58:33.157Z,25.50
2022-10-31T17:01:05.320Z,22.90
2022-10-31T17:03:33.617Z,22.60
2022-10-31T17:06:01.887Z,22.60
2022-10-31T17:08:31.188Z,27.80
2022-10-31T17:10:59.744Z,32.40
2022-10-31T17:13:31.403Z,31.90
2022-10-31T17:16:01.903Z,31.60
2022-10-31T17:18:31.236Z,31.40
2022-10-31T17:21:02.112Z,32.70
2022-10-31T17:23:30.495Z,32.40
2022-10-31T17:25:59.558Z,35.10
2022-10-31T17:28:27.891Z,30.00
2022-10-31T17:30:59.508Z,28.20
2022-10-31T17:33:28.109Z,28.20
2022-10-31T17:35:56.423Z,27.60
2022-10-31T17:38:24.728Z,26.30
2022-10-31T17:40:53.085Z,28.40
2022-10-31T17:43:21.538Z,32.00
2022-10-31T17:45:49.714Z,32.60
2022-10-31T17:48:17.923Z,37.10
2022-10-31T17:50:46.211Z,37.70
2022-10-31T17:53:14.461Z,35.70
2022-10-31T17:55:42.621Z,35.10
2022-10-31T17:58:13.929Z,32.30
2022-10-31T18:00:44.744Z,31.20
2022-10-31T18:03:15.819Z,32.70
2022-10-31T18:05:53.649Z,30.00
2022-10-31T18:08:28.751Z,30.00
2022-10-31T18:13:25.067Z,50.60
2022-10-31T18:15:54.154Z,48.30
2022-10-31T18:18:22.542Z,53.90
2022-10-31T18:20:50.838Z,47.70
2022-10-31T18:23:19.584Z,38.20
2022-10-31T18:25:47.733Z,39.30
2022-10-31T18:28:16.032Z,34.80
2022-10-31T18:30:44.307Z,36.00
2022-10-31T18:33:12.806Z,32.40
2022-10-31T18:35:41.382Z,34.20
2022-10-31T18:38:10.179Z,33.00
2022-10-31T18:40:39.567Z,33.00
2022-10-31T18:43:08.069Z,33.10
2022-10-31T18:45:46.972Z,33.30
2022-10-31T18:48:17.697Z,35.90
2022-10-31T18:50:46.081Z,32.50
2022-10-31T18:53:14.342Z,30.80
2022-10-31T18:55:47.247Z,32.80
2022-10-31T18:58:18.511Z,35.40
2022-10-31T19:00:47.726Z,32.40
2022-10-31T19:03:19.704Z,33.90
2022-10-31T19:05:56.525Z,32.10
2022-10-31T19:08:25.431Z,33.60
2022-10-31T19:10:53.797Z,32.40
2022-10-31T19:13:22.499Z,29.80
2022-10-31T19:15:50.756Z,30.30
2022-10-31T19:18:19.740Z,25.50
2022-10-31T19:20:48.070Z,26.00
2022-10-31T19:23:17.726Z,26.80
2022-10-31T19:25:45.970Z,25.80
2022-10-31T19:28:14.196Z,29.30
2022-10-31T19:30:42.851Z,28.40
2022-10-31T19:33:11.109Z,27.80
2022-10-31T19:35:39.391Z,28.80
2022-10-31T19:38:08.909Z,25.90
2022-10-31T19:40:37.256Z,27.20
2022-10-31T19:43:05.488Z,24.40
2022-10-31T19:45:33.799Z,24.00
2022-10-31T19:48:02.435Z,24.60
2022-10-31T19:50:31.153Z,24.90
2022-10-31T19:52:59.459Z,25.80
2022-10-31T19:55:28.914Z,23.60
2022-10-31T19:58:01.752Z,23.40
2022-10-31T20:00:30.897Z,22.00
2022-10-31T20:02:59.913Z,21.90
2022-10-31T20:05:28.551Z,18.80
2022-10-31T20:07:57.321Z,20.00
2022-10-31T20:10:25.765Z,20.30
2022-10-31T20:12:53.987Z,21.10
2022-10-31T20:15:22.287Z,21.20
2022-10-31T20:17:50.507Z,22.80
2022-10-31T20:20:18.884Z,20.50
2022-10-31T20:22:49.982Z,18.90
2022-10-31T20:25:19.060Z,18.80
2022-10-31T20:27:47.421Z,19.20
2022-10-31T20:30:15.716Z,17.90
2022-10-31T20:32:48.993Z,18.70
2022-10-31T20:35:18.815Z,17.80
2022-10-31T20:37:47.143Z,18.40
2022-10-31T20:40:15.392Z,18.30
2022-10-31T20:42:43.615Z,18.50
2022-10-31T20:45:11.888Z,19.90
2022-10-31T20:47:41.313Z,17.70
2022-10-31T20:50:09.761Z,19.70
2022-10-31T20:52:38.181Z,18.40
2022-10-31T20:55:08.240Z,18.10
2022-10-31T20:57:36.594Z,17.40
2022-10-31T21:00:05.783Z,17.20
2022-10-31T21:02:35.099Z,16.60
2022-10-31T21:05:08.591Z,19.40
2022-10-31T21:07:39.594Z,19.80
2022-10-31T21:10:17.798Z,19.40
2022-10-31T21:12:46.100Z,19.50
2022-10-31T21:15:15.150Z,23.80
2022-10-31T21:17:43.428Z,25.40
2022-10-31T21:20:11.783Z,25.20
2022-10-31T21:22:40.624Z,19.00
2022-10-31T21:25:11.392Z,16.90
2022-10-31T21:27:40.259Z,17.20
2022-10-31T21:30:10.476Z,19.00
2022-10-31T21:33:24.575Z,17.90
2022-10-31T21:35:52.909Z,15.50
2022-10-31T21:38:21.200Z,17.00
2022-10-31T21:40:49.381Z,16.20
2022-10-31T21:43:17.574Z,16.20
2022-10-31T21:45:45.929Z,16.20
2022-10-31T21:48:14.437Z,15.40
2022-10-31T21:50:42.702Z,17.80
2022-10-31T21:53:29.368Z,15.20
2022-10-31T21:56:03.835Z,16.60
2022-10-31T21:58:34.805Z,16.20
2022-10-31T22:01:06.339Z,15.60
2022-10-31T22:03:36.149Z,14.90
2022-10-31T22:06:05.918Z,15.10
2022-10-31T22:08:34.591Z,15.80
2022-10-31T22:11:08.564Z,14.40
2022-10-31T22:13:37.446Z,14.20
2022-10-31T22:16:29.329Z,14.60
2022-10-31T22:19:00.048Z,14.30
2022-10-31T22:21:28.855Z,13.60
2022-10-31T22:24:01.972Z,14.60
2022-10-31T22:26:33.901Z,14.50
2022-10-31T22:29:05.481Z,14.60
2022-10-31T22:31:34.840Z,13.90
2022-10-31T22:34:03.109Z,14.00
2022-10-31T22:36:32.052Z,13.50
2022-10-31T22:39:00.586Z,14.80
2022-10-31T22:41:30.680Z,13.90
2022-10-31T22:44:00.648Z,13.90
2022-10-31T22:46:32.423Z,12.90
2022-10-31T22:49:03.698Z,12.40
2022-10-31T22:51:42.165Z,12.90
2022-10-31T22:54:16.438Z,13.10
2022-10-31T22:56:45.421Z,13.00
2022-10-31T22:59:15.101Z,12.80
2022-10-31T23:01:46.960Z,13.90
2022-10-31T23:04:16.868Z,13.20
2022-10-31T23:06:45.798Z,13.00
2022-10-31T23:09:16.306Z,12.60
2022-10-31T23:11:45.714Z,13.20
2022-10-31T23:14:20.890Z,13.20
2022-10-31T23:16:53.584Z,12.40
2022-10-31T23:19:29.377Z,12.60
2022-10-31T23:22:01.101Z,12.60
2022-10-31T23:24:33.209Z,11.80
2022-10-31T23:27:09.449Z,12.40
2022-10-31T23:30:05.673Z,12.30
2022-10-31T23:32:37.211Z,13.00
2022-10-31T23:35:08.545Z,13.10
2022-10-31T23:37:38.587Z,12.30
2022-10-31T23:40:11.153Z,12.60
2022-10-31T23:42:39.414Z,12.50
2022-10-31T23:45:08.864Z,12.20
2022-10-31T23:47:42.342Z,11.90
2022-10-31T23:50:11.922Z,12.50
2022-10-31T23:52:40.091Z,12.10
2022-10-31T23:55:08.424Z,11.10
2022-10-31T23:57:36.628Z,12.40
